Time;durP1;ratioP1;P1;durP2;ratioP2;P2;SDS_P1;SDS_P2;PMS_P1;PMS_P2;Temp;Humidity;BMP_temperature;BMP_pressure;BME280_temperature;BME280_humidity;BME280_pressure;Samples;Min_cycle;Max_cycle;Signal;HPM_P1;HPM_P2
2023/12/03 00:00:30;;;;;;;2.22;1.17;;;;;;;;;;5107453;28;20051;-68
2023/12/03 00:02:59;;;;;;;2.60;1.30;;;;;;;;;;5113941;28;20483;-68
2023/12/03 00:05:25;;;;;;;3.85;1.50;;;;;;;;;;5106938;28;20044;-68
2023/12/03 00:07:52;;;;;;;5.20;2.47;;;;;;;;;;5110925;28;20035;-68
2023/12/03 00:10:19;;;;;;;5.50;2.45;;;;;;;;;;5108719;28;20050;-68
2023/12/03 00:12:47;;;;;;;4.88;1.95;;;;;;;;;;5114155;28;20039;-68
2023/12/03 00:15:14;;;;;;;4.20;1.83;;;;;;;;;;5111248;28;20138;-68
2023/12/03 00:17:43;;;;;;;3.20;1.48;;;;;;;;;;5114039;28;20051;-68
2023/12/03 00:20:12;;;;;;;3.08;1.13;;;;;;;;;;5112545;28;20066;-68
2023/12/03 00:22:39;;;;;;;4.68;1.23;;;;;;;;;;5108810;28;20051;-68
2023/12/03 00:25:07;;;;;;;5.13;1.50;;;;;;;;;;5111766;28;20402;-68
2023/12/03 00:27:34;;;;;;;2.55;1.02;;;;;;;;;;5115171;28;20450;-68
2023/12/03 00:30:02;;;;;;;8.48;1.65;;;;;;;;;;5112133;28;20047;-68
2023/12/03 00:32:29;;;;;;;6.20;1.23;;;;;;;;;;5112990;28;20049;-68
2023/12/03 00:34:56;;;;;;;3.00;1.65;;;;;;;;;;5110437;28;20055;-68
2023/12/03 00:37:25;;;;;;;3.53;1.45;;;;;;;;;;5109216;28;20039;-68
2023/12/03 00:39:52;;;;;;;2.78;1.70;;;;;;;;;;5091695;28;20052;-68
2023/12/03 00:42:19;;;;;;;3.00;1.40;;;;;;;;;;5106668;28;20051;-68
2023/12/03 00:44:46;;;;;;;4.63;1.55;;;;;;;;;;5111735;28;20050;-68
2023/12/03 00:47:14;;;;;;;4.25;1.30;;;;;;;;;;5107513;28;20055;-68
2023/12/03 00:49:41;;;;;;;3.10;1.33;;;;;;;;;;5104499;28;20043;-68
2023/12/03 00:52:08;;;;;;;2.25;1.08;;;;;;;;;;5105847;28;20056;-68
2023/12/03 00:54:37;;;;;;;2.22;1.27;;;;;;;;;;5089780;28;20050;-68
2023/12/03 00:57:04;;;;;;;2.90;1.35;;;;;;;;;;5104051;28;20112;-68
2023/12/03 00:59:31;;;;;;;2.38;1.38;;;;;;;;;;5092038;28;20056;-68
2023/12/03 01:01:59;;;;;;;2.70;1.45;;;;;;;;;;5104592;28;20063;-68
2023/12/03 01:04:26;;;;;;;2.47;1.40;;;;;;;;;;5101635;28;20048;-68
2023/12/03 01:06:53;;;;;;;2.40;1.30;;;;;;;;;;5107556;28;20071;-68
2023/12/03 01:09:20;;;;;;;5.00;1.20;;;;;;;;;;5088079;28;20053;-68
2023/12/03 01:11:50;;;;;;;4.03;1.30;;;;;;;;;;5109143;28;20529;-68
2023/12/03 01:14:18;;;;;;;3.45;1.20;;;;;;;;;;5109550;28;20131;-68
2023/12/03 01:16:47;;;;;;;2.45;1.20;;;;;;;;;;5103515;28;20147;-68
2023/12/03 01:19:14;;;;;;;5.80;1.35;;;;;;;;;;5108964;28;20478;-68
2023/12/03 01:21:41;;;;;;;4.22;1.50;;;;;;;;;;5106539;28;20044;-68
2023/12/03 01:24:09;;;;;;;2.03;1.17;;;;;;;;;;5108328;28;20050;-68
2023/12/03 01:26:36;;;;;;;4.72;1.33;;;;;;;;;;5106725;28;20055;-68
2023/12/03 01:29:05;;;;;;;2.67;0.98;;;;;;;;;;5091404;28;20130;-68
2023/12/03 01:31:32;;;;;;;2.50;1.17;;;;;;;;;;5106511;28;20483;-68
2023/12/03 01:34:00;;;;;;;1.77;1.10;;;;;;;;;;5106085;28;20044;-68
2023/12/03 01:36:27;;;;;;;3.40;1.00;;;;;;;;;;5100757;28;20040;-68
2023/12/03 01:38:54;;;;;;;3.15;1.15;;;;;;;;;;5089387;28;20047;-68
2023/12/03 01:41:21;;;;;;;1.65;0.77;;;;;;;;;;5108049;28;20054;-68
2023/12/03 01:43:49;;;;;;;1.35;0.80;;;;;;;;;;5108311;28;20123;-68
2023/12/03 01:46:18;;;;;;;1.67;0.90;;;;;;;;;;5109524;28;20535;-68
2023/12/03 01:48:46;;;;;;;1.50;0.90;;;;;;;;;;5086918;28;20055;-68
2023/12/03 01:51:13;;;;;;;1.67;0.90;;;;;;;;;;5109621;28;20074;-68
2023/12/03 01:53:40;;;;;;;4.55;0.90;;;;;;;;;;5105431;28;20050;-68
2023/12/03 01:56:08;;;;;;;2.83;1.13;;;;;;;;;;5106940;28;20040;-68
2023/12/03 01:58:36;;;;;;;3.47;0.70;;;;;;;;;;5102316;28;20051;-68
2023/12/03 02:01:03;;;;;;;2.47;0.82;;;;;;;;;;5108425;28;20035;-68
2023/12/03 02:03:32;;;;;;;4.03;0.98;;;;;;;;;;5106468;28;20036;-68
2023/12/03 02:06:06;;;;;;;1.55;0.80;;;;;;;;;;5107322;28;20043;-68
2023/12/03 02:08:33;;;;;;;1.95;0.80;;;;;;;;;;5106400;28;20157;-68
2023/12/03 02:11:01;;;;;;;1.45;0.85;;;;;;;;;;5103167;28;20059;-68
2023/12/03 02:13:29;;;;;;;1.35;0.80;;;;;;;;;;5107044;28;20047;-68
2023/12/03 02:15:56;;;;;;;2.88;0.95;;;;;;;;;;5105152;27;20417;-68
2023/12/03 02:18:24;;;;;;;3.22;0.77;;;;;;;;;;5083693;28;20530;-68
2023/12/03 02:20:52;;;;;;;1.77;0.88;;;;;;;;;;5103374;28;20047;-68
2023/12/03 02:23:21;;;;;;;0.90;0.60;;;;;;;;;;5104048;28;20336;-68
2023/12/03 02:25:50;;;;;;;1.83;0.80;;;;;;;;;;5081072;28;20043;-68
2023/12/03 02:28:18;;;;;;;1.67;0.93;;;;;;;;;;5106398;28;20052;-68
2023/12/03 02:30:46;;;;;;;1.10;0.73;;;;;;;;;;5098690;28;20126;-68
2023/12/03 02:33:13;;;;;;;1.63;0.90;;;;;;;;;;5089046;28;20039;-68
2023/12/03 02:35:40;;;;;;;2.35;1.08;;;;;;;;;;5108075;28;20039;-68
2023/12/03 02:38:08;;;;;;;1.95;1.30;;;;;;;;;;5106826;28;20047;-68
2023/12/03 02:40:39;;;;;;;2.47;0.80;;;;;;;;;;5087918;28;20094;-68
2023/12/03 02:43:06;;;;;;;1.90;0.93;;;;;;;;;;5108894;28;20051;-68
2023/12/03 02:45:33;;;;;;;2.08;1.00;;;;;;;;;;5094519;28;20066;-68
2023/12/03 02:48:00;;;;;;;4.70;1.10;;;;;;;;;;5106984;28;20051;-68
2023/12/03 02:50:28;;;;;;;2.60;0.93;;;;;;;;;;5108419;28;20052;-68
2023/12/03 02:52:55;;;;;;;2.05;1.08;;;;;;;;;;5101697;28;20048;-68
2023/12/03 02:55:22;;;;;;;3.10;0.93;;;;;;;;;;5078546;28;20050;-68
2023/12/03 02:57:51;;;;;;;5.38;1.20;;;;;;;;;;5102868;28;20421;-68
2023/12/03 03:00:18;;;;;;;4.45;1.27;;;;;;;;;;5102506;28;20052;-68
2023/12/03 03:02:45;;;;;;;2.53;1.15;;;;;;;;;;5106304;28;20044;-68
2023/12/03 03:05:13;;;;;;;2.20;1.00;;;;;;;;;;5102158;28;20050;-68
2023/12/03 03:07:40;;;;;;;1.95;0.90;;;;;;;;;;5106589;28;20047;-68
2023/12/03 03:10:08;;;;;;;5.13;1.10;;;;;;;;;;5102451;28;20048;-68
2023/12/03 03:12:35;;;;;;;3.22;1.20;;;;;;;;;;5106704;28;20819;-68
2023/12/03 03:15:04;;;;;;;3.03;1.17;;;;;;;;;;5105495;28;20067;-68
2023/12/03 03:17:31;;;;;;;2.78;1.20;;;;;;;;;;5088678;28;20527;-68
2023/12/03 03:19:58;;;;;;;2.08;1.20;;;;;;;;;;5107169;28;20503;-68
2023/12/03 03:22:25;;;;;;;2.67;1.35;;;;;;;;;;5103571;28;20055;-68
2023/12/03 03:24:53;;;;;;;1.42;0.85;;;;;;;;;;5101573;28;20048;-68
2023/12/03 03:27:20;;;;;;;1.50;0.85;;;;;;;;;;5086833;28;20048;-68
2023/12/03 03:29:47;;;;;;;1.95;1.10;;;;;;;;;;5108681;28;20383;-68
2023/12/03 03:32:16;;;;;;;1.70;0.90;;;;;;;;;;5104316;28;20044;-68
2023/12/03 03:34:43;;;;;;;2.33;1.10;;;;;;;;;;5105394;28;20055;-68
2023/12/03 03:37:10;;;;;;;2.35;1.17;;;;;;;;;;5106550;28;20059;-68
2023/12/03 03:39:37;;;;;;;3.22;1.33;;;;;;;;;;5089651;28;20043;-68
2023/12/03 03:42:05;;;;;;;2.45;1.25;;;;;;;;;;5082407;28;20430;-68
2023/12/03 03:44:32;;;;;;;3.55;1.30;;;;;;;;;;5083173;28;20398;-68
2023/12/03 03:46:59;;;;;;;2.28;1.30;;;;;;;;;;5096761;28;20048;-68
2023/12/03 03:49:28;;;;;;;3.40;1.63;;;;;;;;;;5098668;28;20052;-68
2023/12/03 03:51:56;;;;;;;3.17;1.38;;;;;;;;;;5096832;28;20162;-68
2023/12/03 03:54:23;;;;;;;2.50;1.50;;;;;;;;;;5098961;28;20394;-68
2023/12/03 03:56:50;;;;;;;3.08;1.48;;;;;;;;;;5088923;28;20059;-67
2023/12/03 03:59:17;;;;;;;3.13;1.58;;;;;;;;;;5105453;28;20062;-68
2023/12/03 04:01:45;;;;;;;3.65;1.60;;;;;;;;;;5088328;28;20050;-68
2023/12/03 04:04:12;;;;;;;2.30;1.27;;;;;;;;;;5100369;28;20502;-68
2023/12/03 04:06:41;;;;;;;3.65;2.00;;;;;;;;;;5105766;28;20474;-68
2023/12/03 04:09:09;;;;;;;4.63;2.17;;;;;;;;;;5105518;28;20529;-67
2023/12/03 04:11:39;;;;;;;9.95;2.25;;;;;;;;;;5089472;28;20051;-68
2023/12/03 04:14:08;;;;;;;4.90;2.45;;;;;;;;;;5108004;28;20066;-68
2023/12/03 04:16:35;;;;;;;5.75;2.40;;;;;;;;;;5106421;28;20052;-68
2023/12/03 04:19:02;;;;;;;4.38;2.22;;;;;;;;;;5090404;28;20060;-67
2023/12/03 04:21:30;;;;;;;5.10;2.10;;;;;;;;;;5111560;28;20043;-67
2023/12/03 04:23:59;;;;;;;4.55;2.60;;;;;;;;;;5104065;28;20055;-67
2023/12/03 04:26:26;;;;;;;8.63;2.88;;;;;;;;;;5110822;28;20133;-68
2023/12/03 04:28:53;;;;;;;5.95;2.30;;;;;;;;;;5089268;28;20063;-67
2023/12/03 04:31:22;;;;;;;5.20;2.70;;;;;;;;;;5106958;28;20060;-68
2023/12/03 04:33:50;;;;;;;5.50;2.55;;;;;;;;;;5107890;28;20445;-67
2023/12/03 04:36:17;;;;;;;5.30;2.60;;;;;;;;;;5109524;28;20538;-67
2023/12/03 04:38:45;;;;;;;4.50;2.45;;;;;;;;;;5105587;28;20047;-67
2023/12/03 04:41:13;;;;;;;5.68;2.63;;;;;;;;;;5106206;28;20054;-68
2023/12/03 04:43:40;;;;;;;4.47;2.65;;;;;;;;;;5109395;28;20100;-68
2023/12/03 04:46:08;;;;;;;5.95;2.40;;;;;;;;;;5106083;28;20052;-67
2023/12/03 04:48:36;;;;;;;6.72;2.75;;;;;;;;;;5106189;28;20047;-67
2023/12/03 04:51:03;;;;;;;6.85;3.30;;;;;;;;;;5087613;28;20050;-68
2023/12/03 04:53:31;;;;;;;5.78;2.80;;;;;;;;;;5101102;28;20043;-67
2023/12/03 04:55:58;;;;;;;5.30;2.80;;;;;;;;;;5091943;28;20052;-67
2023/12/03 04:58:27;;;;;;;5.63;2.40;;;;;;;;;;5108796;28;20517;-67
2023/12/03 05:00:54;;;;;;;5.20;2.72;;;;;;;;;;5086614;28;20059;-67
2023/12/03 05:03:21;;;;;;;5.65;2.65;;;;;;;;;;5109258;28;20062;-67
2023/12/03 05:05:48;;;;;;;10.05;3.60;;;;;;;;;;5107269;28;20039;-67
2023/12/03 05:08:16;;;;;;;7.03;3.15;;;;;;;;;;5106981;28;20055;-67
2023/12/03 05:10:43;;;;;;;7.90;3.95;;;;;;;;;;5105239;27;20059;-67
2023/12/03 05:13:10;;;;;;;6.30;3.90;;;;;;;;;;5109063;28;20053;-67
2023/12/03 05:15:39;;;;;;;6.38;3.45;;;;;;;;;;5096960;28;20409;-67
2023/12/03 05:18:06;;;;;;;8.45;4.20;;;;;;;;;;5091081;28;20052;-67
2023/12/03 05:20:33;;;;;;;6.75;3.92;;;;;;;;;;5086069;28;20058;-67
2023/12/03 05:23:00;;;;;;;9.02;4.63;;;;;;;;;;5098938;28;20059;-67
2023/12/03 05:25:27;;;;;;;9.90;5.38;;;;;;;;;;5101899;28;20039;-67
2023/12/03 05:27:55;;;;;;;12.93;5.57;;;;;;;;;;5095006;28;20054;-67
2023/12/03 05:30:22;;;;;;;10.90;4.65;;;;;;;;;;5107452;28;20055;-68
2023/12/03 05:32:51;;;;;;;14.13;5.20;;;;;;;;;;5110744;28;20820;-67
2023/12/03 05:35:18;;;;;;;9.75;5.05;;;;;;;;;;5107377;28;20036;-67
2023/12/03 05:37:45;;;;;;;15.63;5.70;;;;;;;;;;5107880;28;20070;-67
2023/12/03 05:40:13;;;;;;;21.00;5.53;;;;;;;;;;5111031;28;20067;-68
2023/12/03 05:42:40;;;;;;;13.20;5.15;;;;;;;;;;5101257;28;20046;-68
2023/12/03 05:45:08;;;;;;;25.17;5.45;;;;;;;;;;5086530;28;20044;-68
2023/12/03 05:47:35;;;;;;;15.95;5.78;;;;;;;;;;5099249;28;20054;-68
2023/12/03 05:50:05;;;;;;;10.18;5.65;;;;;;;;;;5104889;28;20470;-67
2023/12/03 05:52:35;;;;;;;15.57;6.35;;;;;;;;;;5108445;28;20474;-68
2023/12/03 05:55:02;;;;;;;10.57;5.80;;;;;;;;;;5107170;28;20391;-68
2023/12/03 05:57:29;;;;;;;11.65;5.93;;;;;;;;;;5106827;28;20051;-68
2023/12/03 05:59:56;;;;;;;16.10;5.65;;;;;;;;;;5106902;28;20040;-67
2023/12/03 06:02:24;;;;;;;12.13;6.03;;;;;;;;;;5082314;28;20044;-68
2023/12/03 06:04:52;;;;;;;14.27;6.07;;;;;;;;;;5088208;27;20043;-67
2023/12/03 06:07:20;;;;;;;14.48;5.60;;;;;;;;;;5104783;28;20066;-68
2023/12/03 06:09:47;;;;;;;11.95;5.50;;;;;;;;;;5108099;28;20051;-68
2023/12/03 06:12:15;;;;;;;9.90;5.07;;;;;;;;;;5108702;28;20086;-68
2023/12/03 06:14:42;;;;;;;13.45;6.22;;;;;;;;;;5105559;28;20043;-68
2023/12/03 06:17:09;;;;;;;12.55;6.10;;;;;;;;;;5106253;28;20427;-68
2023/12/03 06:19:36;;;;;;;18.35;6.57;;;;;;;;;;5106873;28;20142;-68
2023/12/03 06:22:04;;;;;;;16.65;6.43;;;;;;;;;;5086356;28;20083;-68
2023/12/03 06:24:33;;;;;;;16.15;6.68;;;;;;;;;;5102745;28;20043;-68
2023/12/03 06:27:00;;;;;;;17.60;6.70;;;;;;;;;;5104088;28;20131;-68
2023/12/03 06:29:27;;;;;;;18.42;7.38;;;;;;;;;;5104885;28;20075;-68
2023/12/03 06:31:54;;;;;;;14.70;6.90;;;;;;;;;;5104879;28;20136;-68
2023/12/03 06:34:22;;;;;;;15.82;7.32;;;;;;;;;;5107711;28;20487;-68
2023/12/03 06:36:49;;;;;;;16.63;8.02;;;;;;;;;;5105277;28;20043;-68
2023/12/03 06:39:16;;;;;;;16.98;7.65;;;;;;;;;;5107889;28;20498;-68
2023/12/03 06:41:45;;;;;;;23.15;7.25;;;;;;;;;;5109676;28;20043;-68
2023/12/03 06:44:12;;;;;;;21.58;8.40;;;;;;;;;;5108219;28;20047;-68
2023/12/03 06:46:40;;;;;;;21.92;7.30;;;;;;;;;;5105182;28;20043;-68
2023/12/03 06:49:07;;;;;;;21.08;7.10;;;;;;;;;;5106665;28;20058;-68
2023/12/03 06:51:34;;;;;;;21.38;7.75;;;;;;;;;;5082610;28;20062;-68
2023/12/03 06:54:03;;;;;;;21.90;7.90;;;;;;;;;;5100898;28;20063;-68
2023/12/03 06:56:30;;;;;;;20.25;7.40;;;;;;;;;;5100916;28;20048;-68
2023/12/03 06:58:58;;;;;;;20.55;7.68;;;;;;;;;;5102211;28;20040;-68
2023/12/03 07:01:26;;;;;;;23.38;7.82;;;;;;;;;;5108244;28;20048;-68
2023/12/03 07:03:53;;;;;;;27.73;9.63;;;;;;;;;;5104305;28;20724;-68
2023/12/03 07:06:20;;;;;;;34.53;11.48;;;;;;;;;;5098693;28;20543;-68
2023/12/03 07:08:47;;;;;;;35.97;11.65;;;;;;;;;;5099996;28;20250;-68
2023/12/03 07:11:15;;;;;;;52.45;11.90;;;;;;;;;;5097416;28;20617;-68
2023/12/03 07:13:43;;;;;;;50.42;12.35;;;;;;;;;;5100711;28;20403;-68
2023/12/03 07:16:12;;;;;;;57.78;13.30;;;;;;;;;;5085847;28;20137;-68
2023/12/03 07:18:42;;;;;;;58.65;13.88;;;;;;;;;;5102891;28;20043;-69
2023/12/03 07:21:11;;;;;;;56.95;13.88;;;;;;;;;;5084008;28;20405;-69
2023/12/03 07:23:38;;;;;;;52.58;13.23;;;;;;;;;;5105590;28;20050;-69
2023/12/03 07:26:12;;;;;;;58.65;14.68;;;;;;;;;;5084058;28;20052;-69
2023/12/03 07:28:43;;;;;;;54.10;14.23;;;;;;;;;;5106617;28;20372;-69
2023/12/03 07:31:11;;;;;;;64.55;15.57;;;;;;;;;;5106878;28;20138;-69
2023/12/03 07:33:39;;;;;;;64.55;15.48;;;;;;;;;;5097956;28;20050;-69
2023/12/03 07:36:06;;;;;;;61.28;16.20;;;;;;;;;;5095719;28;20048;-69
2023/12/03 07:38:33;;;;;;;55.22;15.15;;;;;;;;;;5102341;28;20063;-69
2023/12/03 07:41:01;;;;;;;55.15;14.35;;;;;;;;;;5096968;28;20044;-70
2023/12/03 07:43:28;;;;;;;69.32;20.75;;;;;;;;;;5101067;28;20047;-69
2023/12/03 07:45:55;;;;;;;66.97;16.27;;;;;;;;;;5095520;28;20058;-69
2023/12/03 07:48:24;;;;;;;71.47;17.38;;;;;;;;;;5103601;28;20100;-69
2023/12/03 07:50:51;;;;;;;73.55;17.23;;;;;;;;;;5112135;28;20060;-69
2023/12/03 07:53:22;;;;;;;80.65;17.02;;;;;;;;;;5105676;28;20050;-70
2023/12/03 07:55:51;;;;;;;72.55;15.68;;;;;;;;;;5087853;28;20533;-69
2023/12/03 07:58:18;;;;;;;94.00;19.48;;;;;;;;;;5081813;28;20059;-69
2023/12/03 08:00:45;;;;;;;92.10;20.60;;;;;;;;;;5104440;28;20069;-69
2023/12/03 08:03:12;;;;;;;100.70;18.83;;;;;;;;;;5095690;28;20398;-69
2023/12/03 08:05:41;;;;;;;95.18;20.05;;;;;;;;;;5106131;28;20062;-69
2023/12/03 08:08:08;;;;;;;109.10;20.48;;;;;;;;;;5102789;28;20105;-69
2023/12/03 08:10:35;;;;;;;113.50;22.02;;;;;;;;;;5107349;28;20044;-70
2023/12/03 08:13:03;;;;;;;98.70;21.83;;;;;;;;;;5112685;28;20139;-69
2023/12/03 08:15:30;;;;;;;102.38;22.98;;;;;;;;;;5109310;28;20403;-69
2023/12/03 08:17:57;;;;;;;114.18;21.50;;;;;;;;;;5107604;28;20767;-69
2023/12/03 08:20:24;;;;;;;117.45;24.35;;;;;;;;;;5088500;28;20059;-69
2023/12/03 08:22:53;;;;;;;102.88;22.70;;;;;;;;;;5090436;28;20146;-69
2023/12/03 08:25:21;;;;;;;117.47;24.45;;;;;;;;;;5108173;28;20070;-69
2023/12/03 08:27:48;;;;;;;106.55;24.77;;;;;;;;;;5112136;28;20134;-69
2023/12/03 08:30:16;;;;;;;106.88;24.55;;;;;;;;;;5105757;28;20052;-69
2023/12/03 08:32:43;;;;;;;106.13;25.30;;;;;;;;;;5087944;28;20109;-69
2023/12/03 08:35:11;;;;;;;96.97;25.55;;;;;;;;;;5086331;28;20064;-69
2023/12/03 08:37:38;;;;;;;101.40;26.60;;;;;;;;;;5108915;28;20050;-69
2023/12/03 08:40:09;;;;;;;102.45;27.40;;;;;;;;;;5111778;28;20426;-68
2023/12/03 08:42:38;;;;;;;102.25;26.95;;;;;;;;;;5105510;28;20046;-69
2023/12/03 08:45:07;;;;;;;101.47;27.20;;;;;;;;;;5110342;28;20131;-69
2023/12/03 08:47:34;;;;;;;99.28;27.20;;;;;;;;;;5089922;28;20463;-68
2023/12/03 08:50:01;;;;;;;107.28;27.63;;;;;;;;;;5104927;28;20052;-69
2023/12/03 08:52:28;;;;;;;107.75;27.63;;;;;;;;;;5105183;28;20058;-69
2023/12/03 08:54:55;;;;;;;98.53;25.65;;;;;;;;;;5079763;28;20136;-68
2023/12/03 08:57:24;;;;;;;104.50;26.45;;;;;;;;;;5093739;28;20067;-68
2023/12/03 08:59:53;;;;;;;94.28;25.45;;;;;;;;;;5079571;28;20043;-68
2023/12/03 09:02:20;;;;;;;92.63;24.20;;;;;;;;;;5094854;28;20063;-68
2023/12/03 09:04:47;;;;;;;100.22;26.33;;;;;;;;;;5094734;28;20054;-68
2023/12/03 09:07:15;;;;;;;97.35;25.10;;;;;;;;;;5099269;28;20387;-68
2023/12/03 09:09:42;;;;;;;99.88;25.95;;;;;;;;;;5097676;28;20039;-68
2023/12/03 09:12:09;;;;;;;104.38;24.70;;;;;;;;;;5099912;28;20082;-68
2023/12/03 09:14:38;;;;;;;89.68;24.48;;;;;;;;;;5099961;28;20055;-68
2023/12/03 09:17:05;;;;;;;103.35;26.20;;;;;;;;;;5098967;28;20054;-68
2023/12/03 09:19:33;;;;;;;100.20;24.73;;;;;;;;;;5100178;28;20668;-68
2023/12/03 09:22:00;;;;;;;95.45;24.38;;;;;;;;;;5101512;28;20043;-68
2023/12/03 09:24:27;;;;;;;97.57;25.52;;;;;;;;;;5092954;28;20422;-68
2023/12/03 09:26:54;;;;;;;106.95;25.48;;;;;;;;;;5097967;28;20044;-68
2023/12/03 09:29:22;;;;;;;95.53;25.30;;;;;;;;;;5095090;28;20487;-68
2023/12/03 09:31:50;;;;;;;84.25;24.05;;;;;;;;;;5094976;28;20047;-68
2023/12/03 09:34:17;;;;;;;98.43;26.55;;;;;;;;;;5095592;28;20052;-68
2023/12/03 09:36:45;;;;;;;99.05;24.88;;;;;;;;;;5094677;28;20040;-68
2023/12/03 09:39:12;;;;;;;92.75;25.20;;;;;;;;;;5094545;28;20059;-68
2023/12/03 09:41:43;;;;;;;90.03;24.77;;;;;;;;;;5106789;28;20564;-68
2023/12/03 09:44:24;;;;;;;104.57;26.20;;;;;;;;;;5106565;28;20133;-68
2023/12/03 09:46:54;;;;;;;91.13;24.25;;;;;;;;;;5106169;28;20039;-68
2023/12/03 09:49:23;;;;;;;89.25;26.38;;;;;;;;;;5103350;28;20494;-68
2023/12/03 09:51:51;;;;;;;96.18;28.05;;;;;;;;;;5105540;28;20079;-68
2023/12/03 09:54:20;;;;;;;96.57;28.02;;;;;;;;;;5109485;28;20043;-68
2023/12/03 09:56:48;;;;;;;90.38;27.42;;;;;;;;;;5100182;28;20179;-68
2023/12/03 09:59:16;;;;;;;98.57;28.60;;;;;;;;;;5105372;28;20052;-68
2023/12/03 10:01:43;;;;;;;97.95;29.38;;;;;;;;;;5101809;28;20058;-68
2023/12/03 10:04:12;;;;;;;81.72;25.45;;;;;;;;;;5107887;28;20122;-68
2023/12/03 10:06:43;;;;;;;84.25;27.38;;;;;;;;;;5107215;28;20126;-68
2023/12/03 10:09:10;;;;;;;79.10;26.25;;;;;;;;;;5103858;28;20131;-68
2023/12/03 10:11:40;;;;;;;95.50;29.13;;;;;;;;;;5106704;28;20535;-68
2023/12/03 10:14:09;;;;;;;93.53;29.77;;;;;;;;;;5107825;28;20055;-68
2023/12/03 10:16:38;;;;;;;117.53;32.78;;;;;;;;;;5102759;28;20036;-68
2023/12/03 10:19:06;;;;;;;97.00;30.90;;;;;;;;;;5105358;28;20044;-68
2023/12/03 10:21:34;;;;;;;96.20;29.77;;;;;;;;;;5085343;28;20054;-68
2023/12/03 10:24:03;;;;;;;88.70;28.90;;;;;;;;;;5107400;28;20054;-68
2023/12/03 10:26:30;;;;;;;72.30;26.20;;;;;;;;;;5102731;28;20055;-69
2023/12/03 10:28:58;;;;;;;66.47;24.83;;;;;;;;;;5106758;28;20047;-68
2023/12/03 10:31:30;;;;;;;64.30;22.98;;;;;;;;;;5087416;28;20491;-68
2023/12/03 10:33:58;;;;;;;53.67;22.20;;;;;;;;;;5107573;28;20043;-68
2023/12/03 10:36:25;;;;;;;46.42;21.10;;;;;;;;;;5106444;28;20047;-68
2023/12/03 10:38:53;;;;;;;39.83;18.67;;;;;;;;;;5105183;28;20145;-68
2023/12/03 10:41:21;;;;;;;38.03;17.63;;;;;;;;;;5103268;28;20051;-68
2023/12/03 10:43:48;;;;;;;35.25;16.77;;;;;;;;;;5106239;28;20056;-68
2023/12/03 10:46:15;;;;;;;33.60;15.23;;;;;;;;;;5108067;28;20059;-68
2023/12/03 10:48:43;;;;;;;28.77;14.20;;;;;;;;;;5084563;28;20402;-68
2023/12/03 10:51:12;;;;;;;25.80;13.27;;;;;;;;;;5084398;28;20457;-68
2023/12/03 10:53:40;;;;;;;25.02;12.40;;;;;;;;;;5099011;28;20055;-68
2023/12/03 10:56:09;;;;;;;27.13;13.00;;;;;;;;;;5105390;28;20482;-68
2023/12/03 10:58:37;;;;;;;28.27;13.88;;;;;;;;;;5102699;28;20495;-68
2023/12/03 11:01:09;;;;;;;27.80;13.32;;;;;;;;;;5085787;28;20044;-68
2023/12/03 11:03:43;;;;;;;35.15;13.68;;;;;;;;;;5105764;28;20055;-68
2023/12/03 11:06:10;;;;;;;31.67;14.02;;;;;;;;;;5102784;28;20058;-68
2023/12/03 11:08:38;;;;;;;29.60;14.48;;;;;;;;;;5100812;28;20102;-68
2023/12/03 11:11:08;;;;;;;34.50;14.63;;;;;;;;;;5103589;28;20051;-68
2023/12/03 11:13:36;;;;;;;35.70;14.48;;;;;;;;;;5102045;28;20372;-68
2023/12/03 11:16:06;;;;;;;35.60;15.20;;;;;;;;;;5100699;28;20406;-68
2023/12/03 11:18:34;;;;;;;35.17;15.35;;;;;;;;;;5105987;28;20120;-68
2023/12/03 11:21:11;;;;;;;36.20;15.57;;;;;;;;;;5093900;28;20087;-68
2023/12/03 11:23:43;;;;;;;33.65;14.70;;;;;;;;;;5106730;28;20422;-68
2023/12/03 11:26:12;;;;;;;35.40;15.35;;;;;;;;;;5106825;28;20051;-68
2023/12/03 11:28:52;;;;;;;37.15;15.40;;;;;;;;;;5104273;28;20047;-68
2023/12/03 11:31:19;;;;;;;34.70;14.43;;;;;;;;;;5105032;28;20055;-68
2023/12/03 11:33:51;;;;;;;43.10;14.75;;;;;;;;;;5105289;28;20066;-67
2023/12/03 11:36:19;;;;;;;39.63;14.57;;;;;;;;;;5100992;28;20035;-67
2023/12/03 11:38:48;;;;;;;36.42;15.77;;;;;;;;;;5103360;28;20123;-68
2023/12/03 11:41:15;;;;;;;47.72;16.67;;;;;;;;;;5104238;28;20043;-68
2023/12/03 11:43:42;;;;;;;43.70;16.70;;;;;;;;;;5102053;28;20040;-68
2023/12/03 11:46:11;;;;;;;43.53;16.33;;;;;;;;;;5105897;28;20051;-68
2023/12/03 11:48:40;;;;;;;47.80;16.80;;;;;;;;;;5103885;28;20048;-68
2023/12/03 11:51:09;;;;;;;48.90;17.38;;;;;;;;;;5108625;28;20043;-67
2023/12/03 11:53:39;;;;;;;40.42;16.75;;;;;;;;;;5085487;28;20044;-68
2023/12/03 11:56:08;;;;;;;40.55;15.55;;;;;;;;;;5106407;28;20040;-68
2023/12/03 11:58:35;;;;;;;45.97;16.30;;;;;;;;;;5086381;28;20066;-68
2023/12/03 12:01:02;;;;;;;46.25;16.73;;;;;;;;;;5101252;28;20044;-68
2023/12/03 12:03:31;;;;;;;49.13;17.60;;;;;;;;;;5102605;28;20039;-68
2023/12/03 12:05:58;;;;;;;43.30;16.45;;;;;;;;;;5100097;28;20503;-68
2023/12/03 12:08:26;;;;;;;39.78;17.33;;;;;;;;;;5103271;28;20096;-68
2023/12/03 12:10:53;;;;;;;42.63;16.77;;;;;;;;;;5106334;28;20059;-67
2023/12/03 12:13:20;;;;;;;48.67;17.17;;;;;;;;;;5097058;28;20047;-67
2023/12/03 12:15:48;;;;;;;50.58;17.13;;;;;;;;;;5101444;28;20059;-68
2023/12/03 12:18:19;;;;;;;44.42;16.88;;;;;;;;;;5100797;28;20563;-68
2023/12/03 12:20:47;;;;;;;45.95;16.13;;;;;;;;;;5099642;28;20063;-68
2023/12/03 12:23:15;;;;;;;47.60;17.17;;;;;;;;;;5104692;28;20039;-68
2023/12/03 12:25:42;;;;;;;44.10;16.02;;;;;;;;;;5107806;28;20051;-68
2023/12/03 12:28:10;;;;;;;47.92;17.92;;;;;;;;;;5106215;28;20052;-68
2023/12/03 12:30:40;;;;;;;45.08;17.13;;;;;;;;;;5102592;28;20056;-68
2023/12/03 12:33:08;;;;;;;48.20;17.50;;;;;;;;;;5086243;28;20144;-67
2023/12/03 12:35:35;;;;;;;44.63;17.25;;;;;;;;;;5101037;28;20462;-67
2023/12/03 12:38:04;;;;;;;44.42;16.17;;;;;;;;;;5105187;28;20048;-67
2023/12/03 12:40:32;;;;;;;43.05;17.02;;;;;;;;;;5108946;28;20048;-67
2023/12/03 12:43:06;;;;;;;40.30;16.05;;;;;;;;;;5109667;28;20067;-68
2023/12/03 12:45:34;;;;;;;38.63;16.40;;;;;;;;;;5105273;28;20055;-68
2023/12/03 12:48:01;;;;;;;39.95;16.50;;;;;;;;;;5086497;28;20087;-68
2023/12/03 12:50:35;;;;;;;40.53;16.17;;;;;;;;;;5101125;28;20123;-68
2023/12/03 12:53:06;;;;;;;37.92;14.98;;;;;;;;;;5097025;28;20048;-68
2023/12/03 12:55:34;;;;;;;41.05;16.05;;;;;;;;;;5088418;28;20055;-68
2023/12/03 12:58:02;;;;;;;35.97;14.60;;;;;;;;;;5106576;28;20552;-67
2023/12/03 13:00:29;;;;;;;35.70;14.15;;;;;;;;;;5102112;28;20505;-68
2023/12/03 13:02:57;;;;;;;36.00;15.13;;;;;;;;;;5102688;28;20047;-67
2023/12/03 13:05:25;;;;;;;37.83;14.95;;;;;;;;;;5090827;28;20047;-67
2023/12/03 13:07:53;;;;;;;37.95;14.25;;;;;;;;;;5108862;28;20043;-67
2023/12/03 13:10:21;;;;;;;36.53;14.93;;;;;;;;;;5105535;28;20051;-68
2023/12/03 13:12:49;;;;;;;41.60;14.07;;;;;;;;;;5109889;28;20040;-67
2023/12/03 13:15:17;;;;;;;35.13;14.30;;;;;;;;;;5102659;28;20051;-68
2023/12/03 13:17:51;;;;;;;35.67;13.45;;;;;;;;;;5107735;28;20048;-68
2023/12/03 13:20:18;;;;;;;35.88;14.48;;;;;;;;;;5107994;28;20046;-68
2023/12/03 13:22:49;;;;;;;36.35;13.45;;;;;;;;;;5109359;28;20074;-68
2023/12/03 13:25:16;;;;;;;34.60;12.75;;;;;;;;;;5089623;28;20054;-68
2023/12/03 13:27:45;;;;;;;34.75;13.68;;;;;;;;;;5104915;28;20497;-68
2023/12/03 13:30:13;;;;;;;35.08;12.43;;;;;;;;;;5104840;28;20051;-67
2023/12/03 13:32:40;;;;;;;28.98;11.98;;;;;;;;;;5103639;28;20048;-67
2023/12/03 13:35:08;;;;;;;31.00;12.38;;;;;;;;;;5102551;28;20308;-67
2023/12/03 13:37:36;;;;;;;32.00;12.02;;;;;;;;;;5100903;28;20055;-67
2023/12/03 13:40:04;;;;;;;36.45;12.30;;;;;;;;;;5107280;28;20050;-67
2023/12/03 13:42:31;;;;;;;29.83;11.10;;;;;;;;;;5102650;28;20498;-67
2023/12/03 13:45:01;;;;;;;29.55;10.30;;;;;;;;;;5106956;28;20051;-68
2023/12/03 13:47:29;;;;;;;26.33;11.13;;;;;;;;;;5106100;28;20044;-67
2023/12/03 13:49:56;;;;;;;26.08;10.38;;;;;;;;;;5077113;28;20052;-67
2023/12/03 13:52:23;;;;;;;25.55;9.77;;;;;;;;;;5102437;28;20070;-67
2023/12/03 13:54:50;;;;;;;24.98;10.00;;;;;;;;;;5104769;28;20051;-67
2023/12/03 13:57:18;;;;;;;27.63;10.48;;;;;;;;;;5104856;28;20054;-67
2023/12/03 13:59:45;;;;;;;27.00;9.45;;;;;;;;;;5100801;28;20908;-67
2023/12/03 14:02:14;;;;;;;25.05;9.93;;;;;;;;;;5102162;28;20054;-67
2023/12/03 14:04:41;;;;;;;26.73;9.98;;;;;;;;;;5105458;28;20055;-68
2023/12/03 14:07:08;;;;;;;22.83;9.30;;;;;;;;;;5101221;28;20479;-68
2023/12/03 14:09:36;;;;;;;25.55;9.20;;;;;;;;;;5100351;28;20101;-67
2023/12/03 14:12:04;;;;;;;25.55;9.23;;;;;;;;;;5103758;28;20082;-67
2023/12/03 14:14:31;;;;;;;25.52;9.35;;;;;;;;;;5091453;28;20522;-67
2023/12/03 14:16:59;;;;;;;22.75;9.50;;;;;;;;;;5104836;28;20044;-68
2023/12/03 14:19:28;;;;;;;23.40;9.50;;;;;;;;;;5106818;28;20055;-67
2023/12/03 14:21:55;;;;;;;23.05;9.32;;;;;;;;;;5100059;28;20047;-68
2023/12/03 14:24:23;;;;;;;24.52;9.65;;;;;;;;;;5106876;28;20043;-67
2023/12/03 14:26:50;;;;;;;23.23;8.77;;;;;;;;;;5104981;28;20105;-68
2023/12/03 14:29:17;;;;;;;26.75;9.70;;;;;;;;;;5098282;28;20679;-68
2023/12/03 14:31:45;;;;;;;23.02;8.25;;;;;;;;;;5101946;28;20040;-67